.
WxDataArchive / Data Records for 2015-03-12
2015-03-11 March 2015 2015-03-13

Data Records for Thursday, 12 March 2015

Time	Temp	Chill	HIndex	Humid	Dewpt	 Wind 	HiWind	WindDir	Rain 	Barom
-----	----	-----	------	-----	-----	------	------	-------	-----	-----
00:00	30.1	30.1	30.1	91	27.8	0	0	---	0.00	30.431 
00:05	30.0	30.0	30.0	91	27.7	0	0	---	0.00	30.431 
00:10	30.0	30.0	30.0	91	27.7	0	0	---	0.00	30.431 
00:15	29.8	29.8	29.8	91	27.5	0	0	---	0.00	30.433 
00:20	29.8	29.8	29.8	91	27.5	0	0	---	0.00	30.433 
00:25	29.7	29.7	29.7	91	27.4	0	0	---	0.00	30.433 
00:30	29.5	29.5	29.5	91	27.2	0	0	---	0.00	30.438 
00:35	29.5	29.5	29.5	91	27.2	0	0	---	0.00	30.438 
00:40	29.4	29.4	29.4	91	27.1	0	0	---	0.00	30.438 
00:45	29.4	29.4	29.4	91	27.1	0	0	---	0.00	30.444 
00:50	29.3	29.3	29.3	91	27.0	0	0	---	0.00	30.444 
00:55	29.1	29.1	29.1	91	26.8	0	0	---	0.00	30.444 
01:00	29.0	29.0	29.0	91	26.7	0	0	---	0.00	30.452 
01:05	29.0	29.0	29.0	91	26.7	0	0	---	0.00	30.452 
01:10	28.8	28.8	28.8	91	26.5	0	0	---	0.00	30.452 
01:15	28.8	28.8	28.8	91	26.5	0	0	---	0.00	30.456 
01:20	28.8	28.8	28.8	91	26.5	0	0	---	0.00	30.456 
01:25	28.7	28.7	28.7	91	26.4	0	0	---	0.00	30.456 
01:30	28.5	28.5	28.5	91	26.2	0	0	---	0.00	30.455 
01:35	28.4	28.4	28.4	92	26.4	0	0	---	0.00	30.455 
01:40	28.5	28.5	28.5	92	26.5	0	0	---	0.00	30.455 
01:45	28.5	28.5	28.5	92	26.5	0	0	---	0.00	30.459 
01:50	28.4	28.4	28.4	92	26.4	0	0	---	0.00	30.459 
01:55	28.2	28.2	28.2	92	26.2	0	0	---	0.00	30.459 
02:00	28.1	28.1	28.1	92	26.1	0	0	---	0.00	30.457 
02:05	28.1	28.1	28.1	92	26.1	0	0	---	0.00	30.457 
02:10	28.1	28.1	28.1	92	26.1	0	0	---	0.00	30.457 
02:15	27.9	27.9	27.9	92	25.9	0	0	---	0.00	30.453 
02:20	27.9	27.9	27.9	92	25.9	0	0	---	0.00	30.453 
02:25	27.9	27.9	27.9	92	25.9	0	0	---	0.00	30.453 
02:30	27.8	27.8	27.8	92	25.8	0	0	---	0.00	30.452 
02:35	27.8	27.8	27.8	92	25.8	0	0	---	0.00	30.452 
02:40	27.6	27.6	27.6	92	25.6	0	0	---	0.00	30.452 
02:45	27.5	27.5	27.5	92	25.5	0	0	---	0.00	30.446 
02:50	27.5	27.5	27.5	92	25.5	0	0	---	0.00	30.446 
02:55	27.5	27.5	27.5	92	25.5	0	0	---	0.00	30.446 
03:00	27.3	27.3	27.3	92	25.3	0	0	---	0.00	30.455 
03:05	27.3	27.3	27.3	92	25.3	0	0	---	0.00	30.455 
03:10	27.3	27.3	27.3	92	25.3	0	0	---	0.00	30.455 
03:15	27.2	27.2	27.2	92	25.2	0	0	---	0.00	30.465 
03:20	27.2	27.2	27.2	92	25.2	0	0	---	0.00	30.465 
03:25	27.0	27.0	27.0	92	25.0	0	0	---	0.00	30.465 
03:30	26.9	26.9	26.9	92	24.9	0	0	---	0.00	30.468 
03:35	26.9	26.9	26.9	92	24.9	0	0	---	0.00	30.468 
03:40	26.7	26.7	26.7	92	24.7	0	0	---	0.00	30.468 
03:45	26.7	26.7	26.7	92	24.7	0	0	---	0.00	30.465 
03:50	26.6	26.6	26.6	92	24.6	0	0	---	0.00	30.465 
03:55	26.4	26.4	26.4	92	24.4	0	0	---	0.00	30.465 
04:00	26.3	26.3	26.3	92	24.3	0	0	---	0.00	30.468 
04:05	26.1	26.1	26.1	92	24.1	0	0	---	0.00	30.468 
04:10	26.1	26.1	26.1	92	24.1	0	0	---	0.00	30.468 
04:15	26.1	26.1	26.1	92	24.1	0	0	---	0.00	30.471 
04:20	26.1	26.1	26.1	92	24.1	0	0	---	0.00	30.471 
04:25	26.1	26.1	26.1	92	24.1	0	0	---	0.00	30.471 
04:30	26.0	26.0	26.0	92	24.0	0	0	---	0.00	30.474 
04:35	26.0	26.0	26.0	92	24.0	0	0	---	0.00	30.474 
04:40	25.8	25.8	25.8	92	23.8	0	0	---	0.00	30.474 
04:45	25.8	25.8	25.8	92	23.8	0	0	---	0.00	30.473 
04:50	25.7	25.7	25.7	92	23.7	0	0	---	0.00	30.473 
04:55	25.7	25.7	25.7	92	23.7	0	0	---	0.00	30.473 
05:00	25.6	25.6	25.6	92	23.6	0	0	---	0.00	30.474 
05:05	25.6	25.6	25.6	92	23.6	0	0	---	0.00	30.474 
05:10	25.4	25.4	25.4	92	23.4	0	0	---	0.00	30.474 
05:15	25.3	25.3	25.3	92	23.3	0	0	---	0.00	30.480 
05:20	25.3	25.3	25.3	92	23.3	0	0	---	0.00	30.480 
05:25	25.1	25.1	25.1	92	23.1	0	0	---	0.00	30.480 
05:30	25.1	25.1	25.1	92	23.1	0	0	---	0.00	30.486 
05:35	25.0	25.0	25.0	92	23.0	0	0	---	0.00	30.486 
05:40	25.0	25.0	25.0	92	23.0	0	0	---	0.00	30.486 
05:45	24.8	24.8	24.8	92	22.8	0	0	---	0.00	30.491 
05:50	24.8	24.8	24.8	92	22.8	0	0	---	0.00	30.491 
05:55	25.0	25.0	25.0	92	23.0	0	0	---	0.00	30.491 
06:00	25.4	25.4	25.4	93	23.7	0	0	---	0.00	30.494 
06:05	25.8	25.8	25.8	93	24.1	0	0	---	0.00	30.494 
06:10	26.4	26.4	26.4	93	24.7	0	1	90	0.00	30.494 
06:15	27.6	27.6	27.6	94	26.1	0	2	90	0.00	30.500 
06:20	28.8	28.8	28.8	94	27.3	1	2	90	0.00	30.500 
06:25	29.4	29.4	29.4	94	27.9	1	3	90	0.00	30.500 
06:30	29.7	29.7	29.7	93	27.9	1	3	90	0.00	30.500 
06:35	29.8	29.8	29.8	92	27.8	1	3	90	0.00	30.500 
06:40	29.7	29.7	29.7	92	27.7	1	2	90	0.00	30.500 
06:45	29.5	29.5	29.5	91	27.2	1	2	90	0.00	30.504 
06:50	29.4	29.4	29.4	91	27.1	1	5	90	0.00	30.504 
06:55	29.4	29.4	29.4	90	26.8	1	2	90	0.00	30.504 
07:00	29.4	29.4	29.4	90	26.8	1	3	90	0.00	30.508 
07:05	29.4	29.4	29.4	89	26.6	1	4	90	0.00	30.508 
07:10	29.4	29.4	29.4	89	26.6	1	3	90	0.00	30.508 
07:15	29.4	29.4	29.4	88	26.3	0	1	90	0.00	30.519 
07:20	29.3	29.3	29.3	88	26.2	0	1	90	0.00	30.519 
07:25	29.3	29.3	29.3	88	26.2	0	2	90	0.00	30.519 
07:30	29.3	29.3	29.3	87	25.9	0	2	90	0.00	30.522 
07:35	29.3	29.3	29.3	87	25.9	1	3	90	0.00	30.522 
07:40	29.4	29.4	29.4	86	25.7	1	3	90	0.00	30.522 
07:45	29.4	29.4	29.4	86	25.7	1	3	90	0.00	30.522 
07:50	29.4	29.4	29.4	85	25.5	0	3	90	0.00	30.522 
07:55	29.4	29.4	29.4	85	25.5	0	1	90	0.00	30.522 
08:00	29.3	29.3	29.3	85	25.4	0	0	---	0.00	30.527 
08:05	29.3	29.3	29.3	85	25.4	0	1	90	0.00	30.527 
08:10	29.1	29.1	29.1	85	25.2	0	0	---	0.00	30.527 
08:15	29.0	29.0	29.0	85	25.1	0	0	---	0.00	30.532 
08:20	29.0	29.0	29.0	86	25.3	0	0	---	0.00	30.532 
08:25	29.0	29.0	29.0	86	25.3	0	2	90	0.00	30.532 
08:30	29.5	29.5	29.5	86	25.8	1	3	90	0.00	30.539 
08:35	30.3	30.3	30.3	85	26.3	1	4	90	0.00	30.539 
08:40	30.9	30.9	30.9	84	26.6	2	4	90	0.00	30.539 
08:45	31.2	31.2	31.2	83	26.6	2	4	90	0.00	30.540 
08:50	31.6	31.6	31.6	82	26.7	1	4	90	0.00	30.540 
08:55	32.1	32.1	32.1	81	26.9	2	4	90	0.00	30.540 
09:00	32.4	32.4	32.4	80	26.9	2	5	90	0.00	30.540 
09:05	32.7	32.7	32.7	79	26.9	2	5	90	0.00	30.540 
09:10	32.8	32.8	32.8	79	27.0	3	7	112	0.00	30.540 
09:15	32.9	32.9	32.9	78	26.8	3	7	90	0.00	30.545 
09:20	33.2	29.5	33.2	77	26.8	4	7	90	0.00	30.545 
09:25	33.5	29.8	33.5	76	26.8	4	9	90	0.00	30.545 
09:30	33.8	30.2	33.8	75	26.7	4	9	90	0.00	30.546 
09:35	34.1	30.5	34.1	74	26.7	4	7	90	0.00	30.546 
09:40	34.4	30.8	34.4	73	26.7	4	8	90	0.00	30.546 
09:45	34.6	31.1	34.6	73	26.9	4	11	112	0.00	30.556 
09:50	34.9	34.9	34.9	72	26.8	3	7	112	0.00	30.556 
09:55	35.2	35.2	35.2	72	27.1	2	5	90	0.00	30.556 
10:06	35.2	35.2	35.2	72	27.1	0	0	---	0.00	30.556 
10:10	35.5	31.2	35.5	67	25.6	5	10	112	0.00	30.562 
10:15	35.6	31.3	35.6	66	25.4	5	12	90	0.00	30.563 
10:20	35.8	31.5	35.8	65	25.2	5	10	90	0.00	30.563 
10:25	36.0	31.8	36.0	64	25.0	5	12	112	0.00	30.563 
10:30	36.2	32.0	36.2	63	24.8	5	10	112	0.00	30.572 
10:35	36.5	32.4	36.5	62	24.7	5	11	112	0.00	30.572 
10:40	36.9	33.7	36.9	62	25.1	4	11	112	0.00	30.572 
10:45	37.2	32.4	37.2	59	24.2	6	14	90	0.00	30.575 
10:50	37.0	32.2	37.0	57	23.2	6	14	112	0.00	30.575 
10:55	37.2	32.4	37.2	57	23.4	6	10	112	0.00	30.575 
11:00	37.6	33.7	37.6	56	23.3	5	12	112	0.00	30.583 
11:05	37.9	34.0	37.9	56	23.6	5	8	90	0.00	30.583 
11:10	38.3	35.4	38.3	57	24.4	4	7	90	0.00	30.583 
11:15	38.6	34.1	38.6	54	23.4	6	14	90	0.00	30.582 
11:20	38.6	34.8	38.6	54	23.4	5	11	90	0.00	30.582 
11:25	38.6	33.5	38.6	53	23.0	7	13	112	0.00	30.582 
11:30	38.5	34.0	38.5	53	22.9	6	13	90	0.00	30.586 
11:35	38.9	35.2	38.9	52	22.8	5	11	90	0.00	30.586 
11:40	38.9	34.4	38.9	52	22.8	6	11	90	0.00	30.586 
11:45	39.1	35.4	39.1	52	23.0	5	9	90	0.00	30.587 
11:50	39.1	34.7	39.1	53	23.4	6	11	90	0.00	30.587 
11:55	39.1	34.7	39.1	53	23.4	6	10	90	0.00	30.587 
12:00	39.5	36.7	39.5	53	23.8	4	12	112	0.00	30.586 
12:05	39.3	34.9	39.3	51	22.7	6	12	90	0.00	30.586 
12:10	39.5	35.9	39.5	52	23.3	5	11	112	0.00	30.586 
12:15	39.6	36.9	39.6	53	23.9	4	9	112	0.00	30.592 
12:20	39.9	36.4	39.9	51	23.3	5	11	90	0.00	30.592 
12:25	40.2	36.7	40.2	50	23.1	5	11	112	0.00	30.592 
12:30	40.3	37.7	40.3	52	24.1	4	7	112	0.00	30.598 
12:35	40.6	37.2	40.6	52	24.4	5	11	90	0.00	30.598 
12:40	40.8	38.2	40.8	51	24.1	4	10	112	0.00	30.598 
12:45	40.9	38.4	40.9	53	25.1	4	10	112	0.00	30.595 
12:50	41.2	38.7	41.2	51	24.5	4	10	90	0.00	30.595 
12:55	41.6	39.2	41.6	50	24.4	4	10	90	0.00	30.595 
13:00	41.6	39.2	41.6	51	24.8	4	9	90	0.00	30.593 
13:05	41.6	38.4	41.6	50	24.4	5	11	90	0.00	30.593 
13:10	41.3	38.0	41.3	52	25.0	5	9	90	0.00	30.593 
13:15	41.5	37.5	41.5	53	25.7	6	11	90	0.00	30.594 
13:20	41.6	38.4	41.6	52	25.3	5	11	90	0.00	30.594 
13:25	41.6	38.4	41.6	52	25.3	5	11	90	0.00	30.594 
13:30	41.6	38.4	41.6	53	25.8	5	12	90	0.00	30.593 
13:35	41.9	39.5	41.9	53	26.0	4	10	90	0.00	30.593 
13:40	42.2	39.9	42.2	52	25.9	4	9	90	0.00	30.593 
13:45	42.1	39.7	42.1	52	25.8	4	9	112	0.00	30.585 
13:50	42.1	39.7	42.1	53	26.2	4	9	90	0.00	30.585 
13:55	42.2	42.2	42.2	54	26.8	3	9	112	0.00	30.585 
14:00	42.2	39.1	42.2	54	26.8	5	10	90	0.00	30.580 
14:05	42.5	40.2	42.5	53	26.6	4	10	90	0.00	30.580 
14:10	42.6	39.5	42.6	54	27.1	5	9	90	0.00	30.580 
14:15	42.8	40.6	42.8	55	27.8	4	9	90	0.00	30.575 
14:20	42.8	39.8	42.8	52	26.4	5	11	90	0.00	30.575 
14:25	43.1	43.1	43.1	53	27.1	3	10	112	0.00	30.575 
14:30	43.5	41.4	43.5	53	27.5	4	11	90	0.00	30.567 
14:35	43.8	41.7	43.8	52	27.3	4	10	90	0.00	30.567 
14:40	43.6	40.7	43.6	53	27.6	5	11	112	0.00	30.567 
14:45	43.9	43.9	43.9	54	28.3	3	10	90	0.00	30.549 
14:50	43.9	40.4	43.9	52	27.4	6	13	90	0.00	30.549 
14:55	43.9	41.1	43.9	53	27.9	5	15	90	0.00	30.549 
15:00	44.2	42.2	44.2	53	28.2	4	10	112	0.00	30.540 
15:05	44.5	41.8	44.5	52	28.0	5	10	90	0.00	30.540 
15:10	44.5	42.5	44.5	53	28.4	4	9	112	0.00	30.540 
15:15	44.6	44.6	44.6	54	29.0	3	11	112	0.00	30.538 
15:20	44.6	41.9	44.6	51	27.6	5	10	90	0.00	30.538 
15:25	44.6	42.6	44.6	51	27.6	4	10	90	0.00	30.538 
15:30	44.8	42.9	44.8	50	27.3	4	13	112	0.00	30.536 
15:35	44.5	41.1	44.5	49	26.5	6	14	112	0.00	30.536 
15:40	44.6	41.9	44.6	52	28.1	5	11	112	0.00	30.536 
15:45	44.6	42.6	44.6	52	28.1	4	10	90	0.00	30.525 
15:50	44.6	42.6	44.6	52	28.1	4	13	90	0.00	30.525 
15:55	44.8	42.9	44.8	51	27.8	4	9	90	0.00	30.525 
16:00	44.8	42.9	44.8	51	27.8	4	11	112	0.00	30.523 
16:05	44.8	42.1	44.8	51	27.8	5	10	112	0.00	30.523 
16:10	44.8	42.1	44.8	52	28.3	5	10	90	0.00	30.523 
16:15	44.6	41.9	44.6	51	27.6	5	10	112	0.00	30.519 
16:20	44.6	41.9	44.6	52	28.1	5	10	112	0.00	30.519 
16:25	44.6	41.9	44.6	50	27.1	5	11	90	0.00	30.519 
16:30	44.6	41.9	44.6	51	27.6	5	11	112	0.00	30.519 
16:35	44.6	42.6	44.6	51	27.6	4	12	112	0.00	30.519 
16:40	44.5	42.5	44.5	52	28.0	4	9	112	0.00	30.519 
16:45	44.8	42.9	44.8	51	27.8	4	10	90	0.00	30.522 
16:50	44.8	44.8	44.8	51	27.8	3	12	112	0.00	30.522 
16:55	44.8	42.1	44.8	51	27.8	5	11	90	0.00	30.522 
17:00	44.8	42.1	44.8	51	27.8	5	11	112	0.00	30.522 
17:05	44.8	42.1	44.8	51	27.8	5	12	90	0.00	30.522 
17:10	44.6	42.6	44.6	51	27.6	4	10	90	0.00	30.522 
17:15	44.5	41.8	44.5	52	28.0	5	13	112	0.00	30.513 
17:20	44.5	42.5	44.5	53	28.4	4	10	112	0.00	30.513 
17:25	44.5	44.5	44.5	54	28.9	3	9	112	0.00	30.513 
17:30	44.5	41.8	44.5	53	28.4	5	12	90	0.00	30.509 
17:35	44.5	41.8	44.5	54	28.9	5	9	112	0.00	30.509 
17:40	44.5	41.8	44.5	54	28.9	5	12	90	0.00	30.509 
17:45	44.3	42.3	44.3	54	28.7	4	11	90	0.00	30.505 
17:50	44.3	42.3	44.3	55	29.2	4	10	90	0.00	30.505 
17:55	44.5	42.5	44.5	54	28.9	4	12	112	0.00	30.505 
18:00	44.5	42.5	44.5	54	28.9	4	10	112	0.00	30.496 
18:05	44.5	42.5	44.5	54	28.9	4	9	90	0.00	30.496 
18:10	44.5	41.8	44.5	52	28.0	5	10	90	0.00	30.496 
18:15	44.5	41.8	44.5	52	28.0	5	11	90	0.00	30.491 
18:20	44.3	42.3	44.3	54	28.7	4	7	90	0.00	30.491 
18:25	44.3	41.5	44.3	54	28.7	5	10	90	0.00	30.491 
18:30	44.2	42.2	44.2	54	28.6	4	10	90	0.00	30.486 
18:35	44.2	42.2	44.2	54	28.6	4	10	90	0.00	30.486 
18:40	44.1	42.1	44.1	55	29.0	4	7	90	0.00	30.486 
18:45	44.1	44.1	44.1	56	29.4	3	7	90	0.00	30.485 
18:50	43.9	41.8	43.9	55	28.8	4	7	90	0.00	30.485 
18:55	43.9	43.9	43.9	56	29.2	2	7	90	0.00	30.485 
19:00	43.6	43.6	43.6	56	29.0	3	7	90	0.00	30.476 
19:05	43.5	43.5	43.5	57	29.3	3	7	90	0.00	30.476 
19:10	43.3	43.3	43.3	57	29.1	3	6	90	0.00	30.476 
19:15	43.2	43.2	43.2	57	29.0	3	8	112	0.00	30.474 
19:20	43.1	43.1	43.1	58	29.3	2	7	90	0.00	30.474 
19:25	42.8	42.8	42.8	59	29.5	2	5	90	0.00	30.474 
19:30	42.5	42.5	42.5	60	29.6	3	6	90	0.00	30.476 
19:35	42.2	42.2	42.2	61	29.7	3	9	90	0.00	30.476 
19:40	41.9	41.9	41.9	62	29.8	2	7	90	0.00	30.476 
19:45	41.6	41.6	41.6	63	30.0	2	6	90	0.00	30.474 
19:50	41.2	41.2	41.2	64	30.0	2	9	90	0.00	30.474 
19:55	41.1	41.1	41.1	64	29.9	3	6	90	0.00	30.474 
20:00	40.9	40.9	40.9	64	29.7	3	7	112	0.00	30.469 
20:05	40.8	38.2	40.8	64	29.6	4	7	112	0.00	30.469 
20:10	40.5	40.5	40.5	65	29.7	3	6	90	0.00	30.469 
20:15	40.3	40.3	40.3	65	29.5	1	4	90	0.00	30.467 
20:20	40.1	40.1	40.1	66	29.7	1	5	90	0.00	30.467 
20:25	39.8	39.8	39.8	66	29.4	1	4	90	0.00	30.467 
20:30	39.6	39.6	39.6	67	29.6	1	4	90	0.00	30.464 
20:35	39.3	39.3	39.3	67	29.3	1	4	90	0.00	30.464 
20:40	39.2	39.2	39.2	68	29.5	1	5	90	0.00	30.464 
20:45	38.9	38.9	38.9	68	29.3	1	4	90	0.00	30.470 
20:50	38.8	38.8	38.8	68	29.2	1	3	90	0.00	30.470 
20:55	38.6	38.6	38.6	68	29.0	1	4	90	0.00	30.470 
21:00	38.5	38.5	38.5	69	29.2	1	3	90	0.00	30.463 
21:05	38.2	38.2	38.2	69	28.9	1	4	90	0.00	30.463 
21:10	38.2	38.2	38.2	69	28.9	2	4	90	0.00	30.463 
21:15	38.0	38.0	38.0	69	28.7	1	4	90	0.00	30.462 
21:20	38.0	38.0	38.0	70	29.1	2	6	90	0.00	30.462 
21:25	37.9	37.9	37.9	71	29.4	2	6	90	0.00	30.462 
21:30	38.0	35.0	38.0	72	29.8	4	9	90	0.00	30.461 
21:35	38.0	38.0	38.0	73	30.1	3	6	90	0.00	30.461 
21:40	38.0	35.0	38.0	74	30.5	4	9	90	0.00	30.461 
21:45	37.9	34.9	37.9	75	30.7	4	7	90	0.00	30.461 
21:50	37.6	37.6	37.6	76	30.7	2	5	90	0.00	30.461 
21:55	37.5	34.4	37.5	76	30.6	4	7	90	0.00	30.461 
22:00	37.2	37.2	37.2	77	30.7	3	9	90	0.00	30.457 
22:05	37.0	33.9	37.0	77	30.5	4	6	90	0.00	30.457 
22:10	36.9	33.7	36.9	77	30.4	4	9	90	0.00	30.457 
22:15	36.6	33.4	36.6	78	30.4	4	9	112	0.00	30.448 
22:20	36.5	36.5	36.5	78	30.3	3	8	90	0.00	30.448 
22:25	36.3	36.3	36.3	78	30.1	3	5	112	0.00	30.448 
22:30	36.0	36.0	36.0	79	30.1	3	7	90	0.00	30.444 
22:35	35.9	32.6	35.9	79	30.0	4	9	90	0.00	30.444 
22:40	35.8	35.8	35.8	79	29.9	3	7	90	0.00	30.444 
22:45	35.6	35.6	35.6	79	29.7	3	6	90	0.00	30.440 
22:50	35.5	35.5	35.5	79	29.6	3	7	90	0.00	30.440 
22:55	35.2	35.2	35.2	79	29.4	3	7	112	0.00	30.440 
23:00	35.0	35.0	35.0	78	28.8	3	6	90	0.00	30.440 
23:05	34.9	34.9	34.9	78	28.7	2	5	90	0.00	30.440 
23:10	34.7	34.7	34.7	78	28.6	2	6	90	0.00	30.440 
23:15	34.6	34.6	34.6	77	28.1	3	6	90	0.00	30.436 
23:20	34.6	34.6	34.6	77	28.1	2	5	90	0.00	30.436 
23:25	34.4	34.4	34.4	76	27.6	3	5	90	0.00	30.436 
23:30	34.4	34.4	34.4	76	27.6	2	6	90	0.00	30.430 
23:35	34.3	34.3	34.3	75	27.2	2	5	90	0.00	30.430 
23:40	34.3	34.3	34.3	75	27.2	2	5	90	0.00	30.430 
23:45	34.1	34.1	34.1	74	26.7	2	5	90	0.00	30.426 
23:50	34.1	34.1	34.1	74	26.7	3	6	90	0.00	30.426 
23:55	34.0	34.0	34.0	74	26.6	2	5	90	0.00	30.426 

CoCoRaHS
IN-AL-39
A2 Web Hosting
Creative Commons License
GoDaddy
search engine by freefind advanced

loaded 2018-11-13 02:29:05 • last modified 2010-11-18 10:43:29
Privacy PolicyDisclaimer
• wx.awcolley.com is powered by PmWiki v.2002016 •
• all content (unless otherwise noted) © 2018 A W Colley